Terminal Aerodrome Forecast
Issued by NWS

Home | Current Version | Previous Version | Text Only | Print | Product List | Glossary On
Versions: 1 2 3 4 5 6 7 8 9 10 11 12 13 14 15 16 17 18 19 20 21 22 23 24 25 26 27 28 29 30 31 32 33
967
FTUS46 KLOX 230140 AAB
TAFPMD
TAF AMD
KPMD 230140Z 2302/2324 21014G22KT 6SM -RA SCT025 BKN050
     FM230500 21015G25KT 4SM -RA BKN025
     FM230900 23022KT 4SM -SHRA BR BKN060
     FM232000 24010KT P6SM VCSH BKN060=

USA.gov is the U.S. government's official web portal to all federal, state and local government web resources and services.